createdAt,value
2023-03-29T00:00:47.500Z,6.6571
2023-03-29T00:01:48.326Z,6.6393
2023-03-29T00:02:49.287Z,6.5222
2023-03-29T00:03:50.249Z,6.4003
2023-03-29T00:04:51.160Z,6.3203
2023-03-29T00:05:51.920Z,6.2188
2023-03-29T00:06:52.734Z,6.0735
2023-03-29T00:07:53.523Z,5.9548
2023-03-29T00:08:54.346Z,5.9087
2023-03-29T00:09:55.110Z,5.8378
2023-03-29T00:10:55.948Z,5.7704
2023-03-29T00:11:56.756Z,5.7791
2023-03-29T00:12:57.605Z,5.7354
2023-03-29T00:13:58.418Z,5.9680
2023-03-29T00:14:59.200Z,6.1475
2023-03-29T00:15:59.972Z,6.1028
2023-03-29T00:17:01.105Z,6.1601
2023-03-29T00:18:02.030Z,6.3145
2023-03-29T00:19:02.916Z,6.3262
2023-03-29T00:20:03.646Z,6.4009
2023-03-29T00:21:04.647Z,6.4557
2023-03-29T00:22:05.562Z,6.4497
2023-03-29T00:23:06.367Z,6.4587
2023-03-29T00:24:07.178Z,6.4933
2023-03-29T00:25:07.976Z,6.5384
2023-03-29T00:26:08.802Z,6.6079
2023-03-29T00:27:09.623Z,6.6104
2023-03-29T00:28:10.420Z,6.4872
2023-03-29T00:29:11.226Z,6.3801
2023-03-29T00:30:12.051Z,6.5793
2023-03-29T00:31:12.865Z,6.4966
2023-03-29T00:32:13.801Z,6.6674
2023-03-29T00:33:14.681Z,6.7682
2023-03-29T00:34:15.492Z,6.9916
2023-03-29T00:35:16.319Z,7.2187
2023-03-29T00:36:17.148Z,7.0386
2023-03-29T00:37:18.007Z,6.8792
2023-03-29T00:38:18.775Z,6.9047
2023-03-29T00:39:19.605Z,6.8912
2023-03-29T00:40:20.405Z,7.0122
2023-03-29T00:41:21.242Z,6.8461
2023-03-29T00:42:22.061Z,6.7944
2023-03-29T00:43:22.878Z,6.8734
2023-03-29T00:44:23.725Z,7.1309
2023-03-29T00:45:24.507Z,7.2007
2023-03-29T00:46:25.376Z,7.3257
2023-03-29T00:47:26.404Z,7.2305
2023-03-29T00:48:27.234Z,7.1217
2023-03-29T00:49:27.992Z,7.1404
2023-03-29T00:50:28.827Z,7.1486
2023-03-29T00:51:29.545Z,7.0386
2023-03-29T00:52:30.314Z,6.9766
2023-03-29T00:53:31.127Z,6.8733
2023-03-29T00:54:31.932Z,6.8375
2023-03-29T00:55:32.718Z,6.9698
2023-03-29T00:56:33.515Z,6.9788
2023-03-29T00:57:34.304Z,7.1419
2023-03-29T00:58:35.118Z,7.2130
2023-03-29T00:59:35.949Z,7.3084
2023-03-29T01:00:36.751Z,7.1403
2023-03-29T01:01:37.534Z,7.1193
2023-03-29T01:02:38.421Z,7.2867
2023-03-29T01:03:39.540Z,7.5056
2023-03-29T01:04:40.556Z,7.5356
2023-03-29T01:05:41.383Z,7.5456
2023-03-29T01:06:42.182Z,7.5417
2023-03-29T01:07:43.090Z,7.5118
2023-03-29T01:08:43.860Z,7.3796
2023-03-29T01:09:44.678Z,7.4285
2023-03-29T01:10:45.362Z,7.4307
2023-03-29T01:11:46.190Z,7.4004
2023-03-29T01:12:46.999Z,7.3430
2023-03-29T01:13:47.801Z,7.3426
2023-03-29T01:14:48.806Z,7.2642
2023-03-29T01:15:49.640Z,7.2463
2023-03-29T01:16:50.479Z,7.2569
2023-03-29T01:17:51.318Z,7.1468
2023-03-29T01:18:52.102Z,7.1356
2023-03-29T01:19:52.904Z,7.1439
2023-03-29T01:20:53.674Z,7.3107
2023-03-29T01:21:54.484Z,7.3708
2023-03-29T01:22:55.344Z,7.3973
2023-03-29T01:23:56.184Z,7.5462
2023-03-29T01:24:56.963Z,7.5106
2023-03-29T01:25:57.812Z,7.4330
2023-03-29T01:26:58.636Z,7.3636
2023-03-29T01:27:59.451Z,7.3465
2023-03-29T01:29:00.286Z,7.3773
2023-03-29T01:30:01.143Z,7.3115
2023-03-29T01:31:02.163Z,7.2649
2023-03-29T01:32:03.604Z,7.3451
2023-03-29T01:33:04.863Z,7.4292
2023-03-29T01:34:05.671Z,7.4960
2023-03-29T01:35:06.486Z,7.4710
2023-03-29T01:36:07.223Z,7.3772
2023-03-29T01:37:08.037Z,7.2637
2023-03-29T01:38:08.784Z,7.2491
2023-03-29T01:39:09.564Z,7.1544
2023-03-29T01:40:10.390Z,7.1621
2023-03-29T01:41:11.200Z,7.4347
2023-03-29T01:42:12.033Z,7.5352
2023-03-29T01:43:13.061Z,7.5022
2023-03-29T01:44:14.190Z,7.3542
2023-03-29T01:45:15.309Z,7.3755
2023-03-29T01:46:16.240Z,7.3409
2023-03-29T01:47:17.140Z,7.3633
2023-03-29T01:48:17.972Z,7.4023
2023-03-29T01:49:18.759Z,7.3518
2023-03-29T01:50:19.610Z,7.3600
2023-03-29T01:51:20.421Z,7.2236
2023-03-29T01:52:21.271Z,7.1971
2023-03-29T01:53:22.087Z,7.1470
2023-03-29T01:54:22.954Z,7.1160
2023-03-29T01:55:23.750Z,7.0770
2023-03-29T01:56:24.552Z,7.1410
2023-03-29T01:57:25.498Z,7.2362
2023-03-29T01:58:26.343Z,7.1302
2023-03-29T01:59:27.049Z,7.1297
2023-03-29T02:00:27.873Z,7.0480
2023-03-29T02:01:28.834Z,7.2089
2023-03-29T02:02:29.811Z,7.0972
2023-03-29T02:03:30.755Z,7.0038
2023-03-29T02:04:32.186Z,6.9759
2023-03-29T02:05:32.997Z,7.0147
2023-03-29T02:06:33.800Z,7.1578
2023-03-29T02:07:34.608Z,7.0436
2023-03-29T02:08:35.468Z,7.0020
2023-03-29T02:09:36.269Z,7.1243
2023-03-29T02:10:37.075Z,7.1062
2023-03-29T02:11:37.876Z,7.0669
2023-03-29T02:12:38.708Z,6.9255
2023-03-29T02:13:39.528Z,7.0541
2023-03-29T02:14:40.498Z,7.1772
2023-03-29T02:15:41.340Z,7.1438
2023-03-29T02:16:42.189Z,6.9990
2023-03-29T02:17:43.046Z,6.8428
2023-03-29T02:18:44.010Z,6.8207
2023-03-29T02:19:44.769Z,6.9224
2023-03-29T02:20:45.490Z,6.9165
2023-03-29T02:21:46.326Z,6.7254
2023-03-29T02:22:47.121Z,6.6616
2023-03-29T02:23:47.966Z,6.5429
2023-03-29T02:24:48.785Z,6.5528
2023-03-29T02:25:49.633Z,6.8441
2023-03-29T02:26:50.606Z,7.1938
2023-03-29T02:27:51.410Z,7.1699
2023-03-29T02:28:52.230Z,7.0742
2023-03-29T02:29:53.059Z,6.9258
2023-03-29T02:30:53.903Z,6.9367
2023-03-29T02:31:54.693Z,6.9336
2023-03-29T02:32:55.596Z,6.9762
2023-03-29T02:33:56.478Z,7.0142
2023-03-29T02:34:57.316Z,7.0588
2023-03-29T02:35:58.068Z,6.9993
2023-03-29T02:36:58.826Z,7.0722
2023-03-29T02:37:59.533Z,6.9296
2023-03-29T02:39:00.355Z,6.9253
2023-03-29T02:40:01.206Z,7.0402
2023-03-29T02:41:02.213Z,7.0509
2023-03-29T02:42:03.607Z,7.2087
2023-03-29T02:43:04.450Z,7.2471
2023-03-29T02:44:05.249Z,7.0357
2023-03-29T02:45:06.079Z,6.8731
2023-03-29T02:46:06.940Z,6.6350
2023-03-29T02:47:07.801Z,6.6473
2023-03-29T02:48:08.615Z,6.7792
2023-03-29T02:49:09.555Z,6.7624
2023-03-29T02:50:10.355Z,6.6989
2023-03-29T02:51:11.208Z,6.8053
2023-03-29T02:52:12.042Z,6.7951
2023-03-29T02:53:12.874Z,6.9670
2023-03-29T02:54:13.697Z,6.9797
2023-03-29T02:55:14.470Z,7.1750
2023-03-29T02:56:15.280Z,7.0542
2023-03-29T02:57:16.254Z,6.7242
2023-03-29T02:58:17.134Z,6.6645
2023-03-29T02:59:17.951Z,6.6420
2023-03-29T03:00:18.785Z,6.5465
2023-03-29T03:01:19.632Z,6.6766
2023-03-29T03:02:20.522Z,6.5465
2023-03-29T03:03:21.470Z,6.4739
2023-03-29T03:04:22.382Z,6.5488
2023-03-29T03:05:23.188Z,6.6795
2023-03-29T03:06:24.052Z,6.7195
2023-03-29T03:07:25.950Z,6.8744
2023-03-29T03:08:26.770Z,6.9099
2023-03-29T03:09:27.566Z,7.0774
2023-03-29T03:10:28.465Z,7.0217
2023-03-29T03:11:29.198Z,6.9306
2023-03-29T03:12:30.053Z,6.9476
2023-03-29T03:13:30.774Z,7.0466
2023-03-29T03:14:31.570Z,7.0430
2023-03-29T03:15:32.274Z,6.9870
2023-03-29T03:16:33.118Z,7.0217
2023-03-29T03:17:33.885Z,6.7920
2023-03-29T03:18:34.702Z,6.6943
2023-03-29T03:19:35.519Z,6.7543
2023-03-29T03:20:36.373Z,6.7426
2023-03-29T03:21:37.159Z,6.8580
2023-03-29T03:22:37.959Z,6.6871
2023-03-29T03:23:38.768Z,6.6404
2023-03-29T03:24:39.485Z,6.6923
2023-03-29T03:25:40.297Z,6.7918
2023-03-29T03:26:41.120Z,6.7885
2023-03-29T03:27:41.951Z,6.7793
2023-03-29T03:28:42.749Z,6.7619
2023-03-29T03:29:43.587Z,6.8519
2023-03-29T03:30:44.613Z,7.0397
2023-03-29T03:31:45.550Z,7.5276
2023-03-29T03:32:46.403Z,7.6637
2023-03-29T03:33:47.257Z,7.4303
2023-03-29T03:34:48.120Z,7.3434
2023-03-29T03:35:48.918Z,7.2779
2023-03-29T03:36:49.787Z,7.2579
2023-03-29T03:37:50.606Z,7.0646
2023-03-29T03:38:51.471Z,6.8692
2023-03-29T03:39:52.241Z,6.9458
2023-03-29T03:40:53.044Z,7.0703
2023-03-29T03:41:53.949Z,7.1622
2023-03-29T03:42:54.709Z,7.1040
2023-03-29T03:43:55.907Z,6.9558
2023-03-29T03:44:56.998Z,6.9169
2023-03-29T03:45:57.996Z,6.9956
2023-03-29T03:46:58.902Z,6.9243
2023-03-29T03:47:59.727Z,6.9796
2023-03-29T03:49:00.585Z,6.7230
2023-03-29T03:50:01.425Z,6.5950
2023-03-29T03:51:02.327Z,6.4328
2023-03-29T03:52:03.785Z,6.4728
2023-03-29T03:53:04.546Z,6.4567
2023-03-29T03:54:05.391Z,6.6011
2023-03-29T03:55:06.170Z,6.3771
2023-03-29T03:56:06.943Z,6.3300
2023-03-29T03:57:07.729Z,6.4849
2023-03-29T03:58:08.558Z,6.5741
2023-03-29T03:59:09.372Z,6.5091
2023-03-29T04:00:10.152Z,6.4252
2023-03-29T04:01:10.928Z,6.7788
2023-03-29T04:02:11.763Z,6.9949
2023-03-29T04:03:12.668Z,7.0726
2023-03-29T04:04:13.912Z,7.0041
2023-03-29T04:05:14.607Z,6.8498
2023-03-29T04:06:15.415Z,6.7063
2023-03-29T04:07:16.217Z,6.9143
2023-03-29T04:08:17.010Z,7.1039
2023-03-29T04:09:17.785Z,6.9151
2023-03-29T04:10:18.654Z,6.8193
2023-03-29T04:11:19.483Z,6.7420
2023-03-29T04:12:20.288Z,6.6568
2023-03-29T04:13:21.151Z,7.0878
2023-03-29T04:14:21.948Z,7.3284
2023-03-29T04:15:22.712Z,7.1974
2023-03-29T04:16:23.495Z,7.1265
2023-03-29T04:17:24.533Z,7.0483
2023-03-29T04:18:25.465Z,7.3019
2023-03-29T04:19:26.504Z,7.1692
2023-03-29T04:20:27.330Z,7.1364
2023-03-29T04:21:28.122Z,7.1666
2023-03-29T04:22:28.903Z,7.1250
2023-03-29T04:23:29.723Z,7.1953
2023-03-29T04:24:30.590Z,7.2833
2023-03-29T04:25:31.361Z,7.1627
2023-03-29T04:26:32.156Z,7.2218
2023-03-29T04:27:32.994Z,7.2124
2023-03-29T04:28:33.812Z,7.6171
2023-03-29T04:29:34.616Z,7.5806
2023-03-29T04:30:35.407Z,7.5531
2023-03-29T04:31:36.257Z,7.5442
2023-03-29T04:32:37.062Z,7.3520
2023-03-29T04:33:37.800Z,7.4273
2023-03-29T04:34:38.553Z,7.3620
2023-03-29T04:35:39.315Z,7.4383
2023-03-29T04:36:40.106Z,7.3802
2023-03-29T04:37:40.921Z,7.2800
2023-03-29T04:38:46.106Z,7.1422
2023-03-29T04:39:44.464Z,7.1319
2023-03-29T04:40:45.272Z,7.2806
2023-03-29T04:41:45.974Z,7.1864
2023-03-29T04:42:46.793Z,7.1668
2023-03-29T04:43:47.567Z,7.3090
2023-03-29T04:44:48.418Z,7.3749
2023-03-29T04:45:49.317Z,7.3074
2023-03-29T04:46:50.240Z,7.4854
2023-03-29T04:47:51.150Z,7.3807
2023-03-29T04:48:51.988Z,7.2643
2023-03-29T04:49:52.812Z,7.1156
2023-03-29T04:50:53.672Z,7.1801
2023-03-29T04:51:54.496Z,7.3979
2023-03-29T04:52:55.319Z,7.8276
2023-03-29T04:53:56.106Z,7.8723
2023-03-29T04:54:56.909Z,7.9226
2023-03-29T04:55:57.664Z,8.1187
2023-03-29T04:56:58.560Z,8.2187
2023-03-29T04:57:59.324Z,8.2645
2023-03-29T04:59:00.184Z,8.1892
2023-03-29T05:00:00.932Z,8.1893
2023-03-29T05:01:02.074Z,8.2850
2023-03-29T05:02:03.967Z,8.2371
2023-03-29T05:03:04.851Z,8.1189
2023-03-29T05:04:05.745Z,8.1164
2023-03-29T05:05:06.507Z,8.1474
2023-03-29T05:06:07.559Z,8.1845
2023-03-29T05:07:08.545Z,8.2328
2023-03-29T05:08:09.421Z,8.2495
2023-03-29T05:09:10.139Z,8.1954
2023-03-29T05:10:10.997Z,8.2522
2023-03-29T05:11:11.888Z,8.3660
2023-03-29T05:12:12.749Z,8.4292
2023-03-29T05:13:13.530Z,8.4034
2023-03-29T05:14:14.311Z,8.4128
2023-03-29T05:15:15.183Z,8.3295
2023-03-29T05:16:16.087Z,8.1529
2023-03-29T05:17:16.916Z,7.9579
2023-03-29T05:18:17.762Z,8.1608
2023-03-29T05:19:18.972Z,8.3377
2023-03-29T05:20:20.004Z,8.3343
2023-03-29T05:21:20.709Z,8.3062
2023-03-29T05:22:21.502Z,8.2945
2023-03-29T05:23:22.452Z,8.3513
2023-03-29T05:24:23.263Z,8.2144
2023-03-29T05:25:24.043Z,8.2191
2023-03-29T05:26:24.844Z,8.1738
2023-03-29T05:27:25.667Z,8.1051
2023-03-29T05:28:26.438Z,8.0754
2023-03-29T05:29:27.222Z,8.1244
2023-03-29T05:30:28.025Z,8.1692
2023-03-29T05:31:28.891Z,8.1909
2023-03-29T05:32:29.628Z,8.2365
2023-03-29T05:33:30.414Z,8.3060
2023-03-29T05:34:31.188Z,8.2726
2023-03-29T05:35:32.039Z,8.3813
2023-03-29T05:36:32.850Z,8.3858
2023-03-29T05:37:33.640Z,8.2619
2023-03-29T05:38:34.497Z,7.9631
2023-03-29T05:39:37.557Z,7.9174
2023-03-29T05:40:36.394Z,7.9451
2023-03-29T05:41:37.186Z,8.1393
2023-03-29T05:42:38.022Z,8.2345
2023-03-29T05:43:38.814Z,8.1906
2023-03-29T05:44:39.548Z,8.2574
2023-03-29T05:45:40.691Z,8.2777
2023-03-29T05:46:41.489Z,8.2060
2023-03-29T05:47:42.314Z,8.1028
2023-03-29T05:48:43.041Z,8.1539
2023-03-29T05:49:43.849Z,8.0670
2023-03-29T05:50:46.260Z,8.0542
2023-03-29T05:51:45.118Z,8.1062
2023-03-29T05:52:45.988Z,8.0941
2023-03-29T05:53:46.765Z,8.0882
2023-03-29T05:54:47.594Z,8.0620
2023-03-29T05:55:49.459Z,7.9809
2023-03-29T05:56:50.342Z,7.9293
2023-03-29T05:57:51.129Z,7.9706
2023-03-29T05:58:53.726Z,7.9335
2023-03-29T05:59:53.700Z,7.9095
2023-03-29T06:00:54.505Z,8.0097
2023-03-29T06:01:55.345Z,7.9188
2023-03-29T06:03:01.373Z,7.9470
2023-03-29T06:03:56.441Z,7.9368
2023-03-29T06:04:57.445Z,7.9216
2023-03-29T06:05:58.316Z,7.9944
2023-03-29T06:06:59.090Z,8.0323
2023-03-29T06:08:00.157Z,7.9411
2023-03-29T06:09:01.087Z,7.9664
2023-03-29T06:10:01.871Z,7.8970
2023-03-29T06:11:04.461Z,7.9717
2023-03-29T06:12:04.293Z,8.1355
2023-03-29T06:13:05.169Z,8.1806
2023-03-29T06:14:05.980Z,8.1856
2023-03-29T06:15:06.779Z,8.4624
2023-03-29T06:16:07.582Z,8.4020
2023-03-29T06:17:08.443Z,8.3608
2023-03-29T06:18:09.284Z,8.3420
2023-03-29T06:19:10.042Z,8.3888
2023-03-29T06:20:10.842Z,8.5630
2023-03-29T06:21:12.779Z,8.6965
2023-03-29T06:22:14.923Z,8.8435
2023-03-29T06:23:15.815Z,8.8472
2023-03-29T06:24:16.765Z,8.9597
2023-03-29T06:25:17.599Z,8.9195
2023-03-29T06:26:18.489Z,8.9399
2023-03-29T06:27:19.256Z,8.8849
2023-03-29T06:28:20.032Z,8.9867
2023-03-29T06:29:20.819Z,8.9334
2023-03-29T06:30:21.585Z,8.9353
2023-03-29T06:31:22.422Z,8.8729
2023-03-29T06:32:23.305Z,8.8847
2023-03-29T06:33:24.179Z,8.8777
2023-03-29T06:34:24.991Z,8.8301
2023-03-29T06:35:25.766Z,8.9804
2023-03-29T06:36:26.532Z,8.9963
2023-03-29T06:37:27.454Z,9.0163
2023-03-29T06:38:28.371Z,9.0507
2023-03-29T06:39:29.294Z,9.1142
2023-03-29T06:40:30.060Z,9.0671
2023-03-29T06:41:30.854Z,9.0963
2023-03-29T06:42:31.705Z,9.1529
2023-03-29T06:43:32.489Z,9.1084
2023-03-29T06:44:33.288Z,9.1751
2023-03-29T06:45:34.682Z,9.2212
2023-03-29T06:46:35.495Z,9.3488
2023-03-29T06:47:36.328Z,9.3137
2023-03-29T06:48:37.131Z,9.3090
2023-03-29T06:49:37.933Z,9.2838
2023-03-29T06:50:38.721Z,9.3273
2023-03-29T06:51:39.485Z,9.3520
2023-03-29T06:52:40.333Z,9.3681
2023-03-29T06:53:41.140Z,9.3099
2023-03-29T06:54:41.877Z,9.1909
2023-03-29T06:55:42.547Z,9.2972
2023-03-29T06:56:43.340Z,9.3305
2023-03-29T06:57:44.041Z,9.3315
2023-03-29T06:58:44.885Z,9.3437
2023-03-29T06:59:45.670Z,9.4286
2023-03-29T07:00:46.435Z,9.4418
2023-03-29T07:01:47.251Z,9.5066
2023-03-29T07:02:48.055Z,9.4846
2023-03-29T07:03:48.849Z,9.4667
2023-03-29T07:04:49.673Z,9.5229
2023-03-29T07:05:50.450Z,9.5679
2023-03-29T07:06:51.249Z,9.5668
2023-03-29T07:07:51.876Z,9.5169
2023-03-29T07:08:52.733Z,9.4739
2023-03-29T07:09:53.477Z,9.4584
2023-03-29T07:10:54.258Z,8.9152
2023-03-29T07:11:54.963Z,8.4528
2023-03-29T07:12:56.733Z,8.1838
2023-03-29T07:13:57.543Z,8.2324
2023-03-29T07:14:58.306Z,8.2168
2023-03-29T07:15:59.136Z,8.0115
2023-03-29T07:17:00.054Z,7.7797
2023-03-29T07:18:00.863Z,7.7241
2023-03-29T07:19:01.680Z,7.6312
2023-03-29T07:20:02.491Z,7.5297
2023-03-29T07:21:03.284Z,7.5463
2023-03-29T07:22:04.157Z,7.6940
2023-03-29T07:23:04.980Z,7.7211
2023-03-29T07:24:05.709Z,7.9205
2023-03-29T07:25:06.482Z,8.0690
2023-03-29T07:26:07.214Z,8.1722
2023-03-29T07:27:07.982Z,8.2768
2023-03-29T07:28:08.739Z,8.1352
2023-03-29T07:29:09.547Z,8.1119
2023-03-29T07:30:10.308Z,8.2678
2023-03-29T07:31:11.191Z,8.2294
2023-03-29T07:32:12.400Z,8.0603
2023-03-29T07:33:13.332Z,8.1056
2023-03-29T07:34:14.417Z,8.2398
2023-03-29T07:35:15.204Z,8.0939
2023-03-29T07:36:16.003Z,8.2748
2023-03-29T07:37:16.897Z,8.2255
2023-03-29T07:38:17.678Z,8.1992
2023-03-29T07:39:18.510Z,8.2223
2023-03-29T07:40:19.262Z,8.2652
2023-03-29T07:41:20.058Z,8.2283
2023-03-29T07:42:20.857Z,8.3212
2023-03-29T07:43:21.624Z,8.3040
2023-03-29T07:44:22.434Z,8.9877
2023-03-29T07:45:26.743Z,8.6383
2023-03-29T07:46:25.494Z,8.4409
2023-03-29T07:47:26.254Z,8.6093
2023-03-29T07:49:27.467Z,8.9987
2023-03-29T07:50:28.186Z,9.0650
2023-03-29T07:51:28.949Z,8.8288
2023-03-29T07:52:29.814Z,8.7824
2023-03-29T07:53:31.586Z,8.7898
2023-03-29T07:54:32.394Z,8.7616
2023-03-29T07:55:33.165Z,8.6268
2023-03-29T07:56:33.976Z,8.8525
2023-03-29T07:57:34.743Z,8.9046
2023-03-29T07:58:35.537Z,9.0060
2023-03-29T07:59:36.292Z,9.1193
2023-03-29T08:00:37.075Z,9.3733
2023-03-29T08:01:37.835Z,9.3280
2023-03-29T08:02:38.608Z,9.2337
2023-03-29T08:03:39.359Z,9.1072
2023-03-29T08:04:40.201Z,8.9985
2023-03-29T08:05:41.976Z,9.0149
2023-03-29T08:06:40.972Z,9.1916
2023-03-29T08:07:41.695Z,8.9410
2023-03-29T08:08:42.373Z,8.9964
2023-03-29T08:09:43.221Z,9.0856
2023-03-29T08:10:43.987Z,9.1656
2023-03-29T08:11:44.718Z,9.2771
2023-03-29T08:12:45.511Z,9.4693
2023-03-29T08:13:46.274Z,9.4074
2023-03-29T08:14:46.997Z,8.8621
2023-03-29T08:15:47.799Z,8.8474
2023-03-29T08:16:48.611Z,8.7369
2023-03-29T08:17:49.413Z,8.7719
2023-03-29T08:18:50.298Z,8.8806
2023-03-29T08:19:52.219Z,8.8169
2023-03-29T08:20:51.100Z,8.7403
2023-03-29T08:21:51.832Z,8.6707
2023-03-29T08:22:52.582Z,8.7045
2023-03-29T08:23:53.240Z,8.9414
2023-03-29T08:24:54.016Z,9.1344
2023-03-29T08:25:54.821Z,9.0012
2023-03-29T08:26:55.641Z,8.7516
2023-03-29T08:27:56.598Z,8.6926
2023-03-29T08:28:57.363Z,8.7154
2023-03-29T08:29:58.106Z,8.6963
2023-03-29T08:30:58.950Z,8.8260
2023-03-29T08:31:59.727Z,9.0119
2023-03-29T08:33:00.598Z,9.1477
2023-03-29T08:34:01.366Z,9.2891
2023-03-29T08:35:02.161Z,9.3525
2023-03-29T08:36:02.969Z,9.2568
2023-03-29T08:37:03.765Z,9.3447
2023-03-29T08:38:04.555Z,9.3519
2023-03-29T08:39:05.329Z,9.4067
2023-03-29T08:40:06.123Z,9.4380
2023-03-29T08:41:06.781Z,9.3229
2023-03-29T08:42:07.589Z,9.4435
2023-03-29T08:43:08.389Z,9.5452
2023-03-29T08:44:09.171Z,9.8522
2023-03-29T08:45:09.924Z,9.9921
2023-03-29T08:46:10.702Z,9.7936
2023-03-29T08:47:11.486Z,10.0521
2023-03-29T08:48:12.273Z,10.1632
2023-03-29T08:49:13.060Z,10.0719
2023-03-29T08:50:13.923Z,10.0874
2023-03-29T08:51:14.638Z,10.0976
2023-03-29T08:52:15.396Z,10.0718
2023-03-29T08:53:16.206Z,9.7844
2023-03-29T08:54:16.994Z,10.1131
2023-03-29T08:55:17.784Z,10.4112
2023-03-29T08:56:18.561Z,10.4640
2023-03-29T08:57:19.351Z,10.4581
2023-03-29T08:58:20.274Z,10.6262
2023-03-29T08:59:21.089Z,10.5547
2023-03-29T09:00:21.827Z,10.8378
2023-03-29T09:01:22.706Z,10.9567
2023-03-29T09:02:23.719Z,10.8918
2023-03-29T09:03:25.015Z,10.8019
2023-03-29T09:04:25.948Z,11.0567
2023-03-29T09:05:26.782Z,11.0600
2023-03-29T09:06:27.668Z,11.0943
2023-03-29T09:07:28.390Z,11.1942
2023-03-29T09:08:29.136Z,11.1855
2023-03-29T09:09:29.942Z,11.2970
2023-03-29T09:10:30.692Z,11.1309
2023-03-29T09:11:31.432Z,11.2376
2023-03-29T09:12:32.087Z,11.2255
2023-03-29T09:13:32.943Z,11.1555
2023-03-29T09:14:33.767Z,11.1950
2023-03-29T09:15:34.570Z,11.3464
2023-03-29T09:16:35.463Z,11.1732
2023-03-29T09:17:36.261Z,10.9633
2023-03-29T09:18:37.134Z,10.9682
2023-03-29T09:19:38.008Z,11.0218
2023-03-29T09:20:38.777Z,10.5171
2023-03-29T09:21:39.536Z,10.3336
2023-03-29T09:22:40.335Z,10.4568
2023-03-29T09:23:41.139Z,10.5552
2023-03-29T09:24:41.927Z,10.6286
2023-03-29T09:25:52.437Z,10.5217
2023-03-29T09:26:44.709Z,10.5267
2023-03-29T09:27:45.398Z,10.7233
2023-03-29T09:28:46.130Z,10.8451
2023-03-29T09:29:46.819Z,10.7837
2023-03-29T09:30:47.598Z,10.7604
2023-03-29T09:31:48.473Z,10.8584
2023-03-29T09:32:49.283Z,10.8485
2023-03-29T09:33:50.048Z,10.8605
2023-03-29T09:34:50.816Z,10.5927
2023-03-29T09:35:51.672Z,10.3947
2023-03-29T09:36:52.554Z,10.2158
2023-03-29T09:37:53.369Z,10.1826
2023-03-29T09:38:54.206Z,10.1795
2023-03-29T09:39:55.134Z,10.2456
2023-03-29T09:40:55.950Z,10.3608
2023-03-29T09:41:56.715Z,10.3941
2023-03-29T09:42:57.510Z,10.4290
2023-03-29T09:43:58.318Z,10.5019
2023-03-29T09:44:59.082Z,10.4897
2023-03-29T09:45:59.989Z,10.5078
2023-03-29T09:47:00.897Z,10.3674
2023-03-29T09:48:01.695Z,10.4786
2023-03-29T09:49:02.458Z,10.9434
2023-03-29T09:50:03.257Z,10.7213
2023-03-29T09:51:04.286Z,10.7933
2023-03-29T09:52:05.617Z,10.9843
2023-03-29T09:53:06.446Z,11.0017
2023-03-29T09:54:07.222Z,10.9941
2023-03-29T09:55:08.036Z,10.8324
2023-03-29T09:56:08.864Z,10.9238
2023-03-29T09:57:09.735Z,10.8801
2023-03-29T09:58:10.655Z,10.8355
2023-03-29T09:59:11.446Z,10.8969
2023-03-29T10:00:12.263Z,11.2414
2023-03-29T10:01:13.078Z,11.2110
2023-03-29T10:02:13.796Z,11.5537
2023-03-29T10:03:14.609Z,11.8020
2023-03-29T10:04:15.384Z,11.4996
2023-03-29T10:05:16.160Z,11.4833
2023-03-29T10:06:16.970Z,11.4098
2023-03-29T10:07:17.731Z,11.4861
2023-03-29T10:08:19.661Z,11.3688
2023-03-29T10:09:18.689Z,11.5204
2023-03-29T10:11:20.042Z,11.6702
2023-03-29T10:12:20.734Z,12.0231
2023-03-29T10:13:21.385Z,12.2246
2023-03-29T10:15:29.668Z,12.3073
2023-03-29T10:16:24.822Z,12.7821
2023-03-29T10:17:25.619Z,12.5543
2023-03-29T10:18:26.397Z,12.2557
2023-03-29T10:19:27.087Z,12.0051
2023-03-29T10:20:27.863Z,12.2643
2023-03-29T10:21:28.638Z,12.3663
2023-03-29T10:22:29.425Z,13.0581
2023-03-29T10:23:30.185Z,13.1032
2023-03-29T10:24:30.930Z,12.9181
2023-03-29T10:25:31.709Z,13.3533
2023-03-29T10:26:32.496Z,13.1102
2023-03-29T10:27:33.248Z,12.9481
2023-03-29T10:28:34.036Z,12.5116
2023-03-29T10:29:34.849Z,12.5268
2023-03-29T10:30:35.626Z,12.6844
2023-03-29T10:31:36.461Z,12.8462
2023-03-29T10:32:37.251Z,12.8753
2023-03-29T10:33:37.951Z,12.7574
2023-03-29T10:34:38.748Z,12.7149
2023-03-29T10:35:39.583Z,13.1422
2023-03-29T10:36:40.350Z,13.2992
2023-03-29T10:37:41.112Z,13.5814
2023-03-29T10:38:41.899Z,14.4299
2023-03-29T10:39:42.665Z,14.9601
2023-03-29T10:40:43.453Z,14.3274
2023-03-29T10:41:44.252Z,15.1139
2023-03-29T10:42:45.039Z,15.5737
2023-03-29T10:43:45.838Z,15.6523
2023-03-29T10:44:46.827Z,13.6219
2023-03-29T10:45:47.525Z,13.1629
2023-03-29T10:46:48.230Z,13.3180
2023-03-29T10:47:49.087Z,13.7324
2023-03-29T10:48:49.768Z,13.2980
2023-03-29T10:49:51.021Z,13.1295
2023-03-29T10:50:51.738Z,13.5470
2023-03-29T10:51:52.473Z,15.4905
2023-03-29T10:52:53.234Z,15.5162
2023-03-29T10:53:54.062Z,14.0125
2023-03-29T10:54:54.864Z,13.4047
2023-03-29T10:55:55.655Z,13.2466
2023-03-29T10:56:56.497Z,12.8275
2023-03-29T10:57:57.305Z,12.4140
2023-03-29T10:58:58.094Z,12.9708
2023-03-29T10:59:58.878Z,13.0938
2023-03-29T11:00:59.802Z,12.8358
2023-03-29T11:02:01.086Z,12.8375
2023-03-29T11:03:01.956Z,12.8009
2023-03-29T11:04:02.848Z,12.8672
2023-03-29T11:05:03.855Z,12.6780
2023-03-29T11:06:04.638Z,12.5816
2023-03-29T11:07:05.455Z,12.7774
2023-03-29T11:08:06.227Z,12.8972
2023-03-29T11:09:07.067Z,12.8194
2023-03-29T11:10:07.846Z,12.7347
2023-03-29T11:11:08.626Z,13.1988
2023-03-29T11:12:15.607Z,13.5868
2023-03-29T11:14:11.223Z,14.1667
2023-03-29T11:15:11.866Z,14.4713
2023-03-29T11:16:12.697Z,14.5625
2023-03-29T11:17:13.485Z,14.4083
2023-03-29T11:18:14.249Z,14.4532
2023-03-29T11:19:15.011Z,14.5285
2023-03-29T11:20:15.852Z,14.4762
2023-03-29T11:21:16.616Z,14.7340
2023-03-29T11:22:17.448Z,14.8008
2023-03-29T11:23:18.228Z,14.9067
2023-03-29T11:24:19.106Z,15.0034
2023-03-29T11:25:19.864Z,15.0496
2023-03-29T11:26:20.646Z,15.0352
2023-03-29T11:27:21.490Z,15.0105
2023-03-29T11:28:22.256Z,15.0739
2023-03-29T11:29:22.986Z,15.3891
2023-03-29T11:30:23.749Z,15.9144
2023-03-29T11:31:24.730Z,16.0371
2023-03-29T11:32:25.690Z,15.9558
2023-03-29T11:33:26.453Z,16.0687
2023-03-29T11:34:27.269Z,16.0344
2023-03-29T11:35:28.038Z,15.8356
2023-03-29T11:36:28.874Z,16.3286
2023-03-29T11:37:29.616Z,16.6502
2023-03-29T11:38:30.424Z,16.5402
2023-03-29T11:39:31.197Z,16.3233
2023-03-29T11:40:33.046Z,16.2869
2023-03-29T11:41:33.963Z,16.9700
2023-03-29T11:42:34.767Z,16.8066
2023-03-29T11:43:35.552Z,16.8237
2023-03-29T11:44:36.397Z,16.3864
2023-03-29T11:45:37.213Z,16.9743
2023-03-29T11:46:38.050Z,17.4938
2023-03-29T11:47:38.946Z,16.9979
2023-03-29T11:48:39.709Z,16.3226
2023-03-29T11:49:40.495Z,16.3992
2023-03-29T11:50:41.307Z,16.2833
2023-03-29T11:51:42.108Z,17.0711
2023-03-29T11:52:42.951Z,17.6850
2023-03-29T11:53:43.616Z,17.3450
2023-03-29T11:54:44.531Z,17.2110
2023-03-29T11:55:45.345Z,17.3713
2023-03-29T11:56:46.209Z,16.4891
2023-03-29T11:57:46.973Z,16.0334
2023-03-29T11:58:47.747Z,15.7557
2023-03-29T11:59:48.593Z,15.7245
2023-03-29T12:00:49.374Z,16.2527
2023-03-29T12:01:50.210Z,16.1857
2023-03-29T12:02:51.062Z,15.8244
2023-03-29T12:03:52.001Z,15.6486
2023-03-29T12:04:52.981Z,15.5899
2023-03-29T12:05:53.789Z,15.9057
2023-03-29T12:06:54.592Z,16.6405
2023-03-29T12:07:55.410Z,17.0029
2023-03-29T12:08:56.173Z,16.7162
2023-03-29T12:09:56.991Z,16.0990
2023-03-29T12:10:57.757Z,15.8567
2023-03-29T12:11:58.609Z,15.7189
2023-03-29T12:12:59.428Z,15.6435
2023-03-29T12:14:00.235Z,15.6281
2023-03-29T12:15:01.029Z,15.1477
2023-03-29T12:16:01.908Z,15.1355
2023-03-29T12:17:02.757Z,15.1639
2023-03-29T12:18:04.078Z,15.1802
2023-03-29T12:19:04.823Z,14.6872
2023-03-29T12:20:05.613Z,14.5627
2023-03-29T12:21:06.471Z,14.7487
2023-03-29T12:22:07.200Z,14.5160
2023-03-29T12:23:07.999Z,14.6451
2023-03-29T12:24:08.870Z,14.2929
2023-03-29T12:25:10.453Z,14.4408
2023-03-29T12:26:11.232Z,14.6128
2023-03-29T12:27:12.017Z,14.4818
2023-03-29T12:28:12.806Z,14.4131
2023-03-29T12:29:13.555Z,14.0755
2023-03-29T12:30:14.330Z,14.1929
2023-03-29T12:31:15.143Z,14.3512
2023-03-29T12:32:16.044Z,14.7038
2023-03-29T12:33:17.058Z,14.8660
2023-03-29T12:34:17.880Z,14.8137
2023-03-29T12:35:18.713Z,14.7492
2023-03-29T12:36:19.462Z,14.4145